Time;durP1;ratioP1;P1;durP2;ratioP2;P2;SDS_P1;SDS_P2;PMS_P1;PMS_P2;Temp;Humidity;BMP_temperature;BMP_pressure;BME280_temperature;BME280_humidity;BME280_pressure;Samples;Min_cycle;Max_cycle;Signal;HPM_P1;HPM_P2
2022/09/04 00:02:37;;;;;;;9.83;6.83;;;;;;;16.91;73.61;101225.56;5031504;28;20072;-85
2022/09/04 00:05:02;;;;;;;8.37;6.83;;;;;;;16.88;75.98;101220.75;5031307;28;20856;-86
2022/09/04 00:08:05;;;;;;;13.00;7.70;;;;;;;16.78;76.82;101217.09;5032146;28;20060;-86
2022/09/04 00:10:39;;;;;;;9.67;7.53;;;;;;;16.69;75.62;101218.03;5031431;28;20126;-86
2022/09/04 00:13:17;;;;;;;11.52;6.95;;;;;;;16.68;75.72;101222.59;5031648;28;20043;-86
2022/09/04 00:15:48;;;;;;;9.55;7.38;;;;;;;16.71;74.95;101226.63;5031502;28;20153;-86
2022/09/04 00:18:34;;;;;;;10.15;6.93;;;;;;;16.71;75.92;101235.56;5031606;28;20362;-85
2022/09/04 00:21:14;;;;;;;13.18;7.40;;;;;;;16.67;76.30;101231.81;5030620;28;20029;-86
2022/09/04 00:24:00;;;;;;;8.15;6.78;;;;;;;16.65;75.26;101242.94;5031393;28;20044;-86
2022/09/04 00:26:43;;;;;;;10.18;7.35;;;;;;;16.55;75.90;101228.72;5031497;28;20022;-85
2022/09/04 00:29:19;;;;;;;10.80;6.80;;;;;;;16.53;77.13;101239.81;5031459;28;20048;-86
2022/09/04 00:32:19;;;;;;;7.82;7.00;;;;;;;16.49;75.64;101236.88;5283233;22;20056;-86
2022/09/04 00:35:04;;;;;;;8.60;7.37;;;;;;;16.46;76.30;101237.47;4997677;28;20085;-86
2022/09/04 00:37:57;;;;;;;9.77;7.20;;;;;;;16.41;77.48;101234.84;5011452;28;20327;-86
2022/09/04 00:40:46;;;;;;;11.88;7.40;;;;;;;16.37;77.25;101238.38;5010965;28;20037;-85
2022/09/04 00:43:50;;;;;;;11.10;7.70;;;;;;;16.35;77.30;101235.97;5011198;28;20433;-86
2022/09/04 00:46:27;;;;;;;12.85;6.88;;;;;;;16.31;76.77;101245.75;4957382;28;20069;-86
2022/09/04 00:49:01;;;;;;;13.63;7.43;;;;;;;16.29;77.48;101242.50;5011072;28;20037;-86
2022/09/04 00:51:54;;;;;;;12.23;7.63;;;;;;;16.23;77.58;101239.06;5010684;28;20038;-86
2022/09/04 00:54:33;;;;;;;10.77;8.45;;;;;;;16.22;79.30;101242.06;5010944;28;20030;-86
2022/09/04 00:57:20;;;;;;;10.18;7.93;;;;;;;16.19;79.76;101259.66;5010843;28;20543;-86
2022/09/04 01:00:17;;;;;;;11.15;7.70;;;;;;;16.16;79.59;101252.91;5010455;28;20037;-86
2022/09/04 01:03:11;;;;;;;12.57;8.30;;;;;;;16.13;78.50;101245.38;5006033;28;20042;-86
2022/09/04 01:06:13;;;;;;;10.40;7.80;;;;;;;16.08;79.14;101252.72;5012443;28;20295;-85
2022/09/04 01:09:03;;;;;;;9.32;7.60;;;;;;;16.05;78.65;101264.94;4993037;28;20038;-85
2022/09/04 01:11:30;;;;;;;11.43;7.32;;;;;;;16.06;79.34;101261.13;5010400;28;20466;-86
2022/09/04 01:14:12;;;;;;;12.00;7.68;;;;;;;16.00;78.72;101252.25;5010522;28;20041;-86
2022/09/04 01:16:56;;;;;;;13.25;7.40;;;;;;;15.97;79.32;101252.84;4987868;28;20030;-86
2022/09/04 01:20:01;;;;;;;10.40;7.38;;;;;;;15.98;79.49;101272.53;4992930;28;20034;-86
2022/09/04 01:22:53;;;;;;;12.40;7.22;;;;;;;15.95;80.82;101268.53;5010768;28;20108;-85
2022/09/04 01:25:55;;;;;;;15.48;7.43;;;;;;;15.92;80.30;101273.66;5010021;28;20499;-85
2022/09/04 01:28:41;;;;;;;11.93;7.75;;;;;;;15.87;80.24;101278.06;5010344;28;20041;-85
2022/09/04 01:31:21;;;;;;;10.47;7.50;;;;;;;15.82;82.08;101277.22;5009396;28;20030;-85
2022/09/04 01:34:21;;;;;;;8.97;7.50;;;;;;;15.80;81.44;101272.13;5010494;28;20292;-84
2022/09/04 01:37:02;;;;;;;10.23;8.20;;;;;;;15.81;82.04;101278.31;5010105;28;20128;-85
2022/09/04 01:39:30;;;;;;;9.70;7.28;;;;;;;15.78;82.18;101282.41;5010584;28;20052;-85
2022/09/04 01:42:02;;;;;;;9.48;6.95;;;;;;;15.78;81.77;101287.81;5009562;28;20033;-85
2022/09/04 01:44:29;;;;;;;10.13;7.30;;;;;;;15.73;83.17;101280.56;5010628;28;20038;-85
2022/09/04 01:46:54;;;;;;;8.82;6.95;;;;;;;15.71;82.85;101288.13;5010800;28;20494;-85
2022/09/04 01:49:36;;;;;;;11.10;7.30;;;;;;;15.71;82.01;101287.31;5010672;28;20103;-85
2022/09/04 01:52:27;;;;;;;10.32;7.50;;;;;;;15.67;83.23;101283.56;5009797;28;20022;-85
2022/09/04 01:55:12;;;;;;;9.98;7.38;;;;;;;15.62;82.70;101291.69;5010051;28;20105;-85
2022/09/04 01:57:56;;;;;;;10.88;7.32;;;;;;;15.55;82.62;101287.41;5010015;28;20055;-85
2022/09/04 02:00:24;;;;;;;11.15;7.75;;;;;;;15.55;83.53;101292.81;4992328;28;20030;-85
2022/09/04 02:03:15;;;;;;;10.83;7.37;;;;;;;15.58;84.22;101305.75;5010175;28;20030;-85
2022/09/04 02:05:56;;;;;;;10.03;6.90;;;;;;;15.61;83.72;101307.13;4997043;28;20761;-85
2022/09/04 02:09:00;;;;;;;11.23;7.60;;;;;;;15.58;82.91;101310.38;5010337;28;20458;-85
2022/09/04 02:11:30;;;;;;;10.13;7.45;;;;;;;15.55;83.49;101311.72;5021094;28;20051;-87
2022/09/04 02:14:26;;;;;;;12.10;6.95;;;;;;;15.51;83.03;101316.09;5026895;28;20026;-85
2022/09/04 02:17:03;;;;;;;9.82;7.70;;;;;;;15.48;85.37;101315.81;5026188;28;20030;-85
2022/09/04 02:19:47;;;;;;;11.65;7.72;;;;;;;15.44;85.14;101315.56;5011211;28;20026;-85
2022/09/04 02:22:43;;;;;;;9.23;7.45;;;;;;;15.40;84.37;101309.13;5010769;28;20721;-85
2022/09/04 02:25:29;;;;;;;10.90;7.65;;;;;;;15.43;84.35;101325.56;5009915;28;20067;-84
2022/09/04 02:28:17;;;;;;;9.68;7.45;;;;;;;15.40;84.83;101325.31;5010134;28;20061;-84
2022/09/04 02:30:58;;;;;;;12.10;7.50;;;;;;;15.39;84.88;101326.41;5009361;28;20133;-85
2022/09/04 02:33:39;;;;;;;12.63;8.17;;;;;;;15.36;87.05;101322.38;5010598;28;20304;-85
2022/09/04 02:36:12;;;;;;;13.13;7.93;;;;;;;15.44;87.11;101326.38;5009863;28;20041;-85
2022/09/04 02:38:59;;;;;;;13.25;8.10;;;;;;;15.45;89.07;101328.00;5009626;28;20430;-85
2022/09/04 02:41:46;;;;;;;14.23;8.57;;;;;;;15.42;88.50;101326.66;5009446;28;20050;-85
2022/09/04 02:44:33;;;;;;;11.07;8.50;;;;;;;15.36;91.39;101324.25;5012667;28;20442;-85
2022/09/04 02:47:24;;;;;;;11.20;8.20;;;;;;;15.42;92.21;101333.94;5012273;28;20389;-85
2022/09/04 02:50:29;;;;;;;9.25;7.55;;;;;;;15.39;89.64;101335.31;4994575;28;20088;-85
2022/09/04 02:53:17;;;;;;;8.75;7.55;;;;;;;15.38;90.85;101340.97;5012811;28;20022;-85
2022/09/04 02:55:56;;;;;;;8.27;7.47;;;;;;;15.36;92.10;101345.84;5013068;28;20018;-85
2022/09/04 02:58:49;;;;;;;9.90;7.90;;;;;;;15.35;91.14;101344.22;4995720;28;20454;-85
2022/09/04 03:01:35;;;;;;;8.67;7.53;;;;;;;15.36;91.10;101352.06;5012431;28;20280;-85
2022/09/04 03:04:12;;;;;;;8.07;7.22;;;;;;;15.33;91.25;101351.81;5012692;28;20037;-85
2022/09/04 03:06:57;;;;;;;15.75;7.75;;;;;;;15.32;92.11;101359.09;5012934;28;20032;-85
2022/09/04 03:09:43;;;;;;;9.05;7.50;;;;;;;15.25;92.02;101359.41;5013268;28;20062;-85
2022/09/04 03:12:27;;;;;;;15.82;7.57;;;;;;;15.26;91.28;101360.19;5012318;28;20022;-85
2022/09/04 03:15:13;;;;;;;12.25;7.97;;;;;;;15.23;91.83;101363.47;5012581;28;20366;-85
2022/09/04 03:17:46;;;;;;;9.40;7.47;;;;;;;15.21;93.21;101357.53;5012654;28;20037;-85
2022/09/04 03:20:38;;;;;;;11.38;8.45;;;;;;;15.13;94.23;101357.00;5012190;28;20057;-85
2022/09/04 03:23:13;;;;;;;10.23;8.13;;;;;;;15.14;94.15;101352.44;5012731;28;20037;-85
2022/09/04 03:26:00;;;;;;;10.70;8.33;;;;;;;15.16;94.97;101363.75;5012949;28;20371;-85
2022/09/04 03:28:52;;;;;;;10.97;8.00;;;;;;;15.16;94.02;101355.66;5012807;28;20383;-85
2022/09/04 03:31:43;;;;;;;13.57;8.40;;;;;;;15.14;93.79;101360.53;5012066;28;20478;-85
2022/09/04 03:34:56;;;;;;;11.32;8.40;;;;;;;15.11;93.29;101356.47;5012165;28;20030;-85
2022/09/04 03:38:02;;;;;;;12.18;8.20;;;;;;;15.13;94.99;101362.41;4937143;28;20107;-85
2022/09/04 03:40:41;;;;;;;13.00;8.65;;;;;;;15.13;95.43;101364.31;5012564;28;20030;-85
2022/09/04 03:43:19;;;;;;;12.57;8.40;;;;;;;15.09;95.09;101361.34;5011994;28;20400;-85
2022/09/04 03:51:01;;;;;;;11.02;8.00;;;;;;;15.04;95.39;101364.09;5029694;28;20076;-85
2022/09/04 03:53:34;;;;;;;12.93;8.00;;;;;;;15.06;95.62;101372.72;5031493;28;20026;-85
2022/09/04 03:56:14;;;;;;;13.43;8.87;;;;;;;15.05;95.30;101370.28;5012068;28;20760;-85
2022/09/04 03:58:45;;;;;;;9.70;7.72;;;;;;;15.01;94.54;101367.31;5012158;28;20038;-85
2022/09/04 04:01:39;;;;;;;9.55;7.75;;;;;;;14.86;95.03;101357.38;5011461;28;20032;-85
2022/09/04 04:04:34;;;;;;;10.85;7.75;;;;;;;14.83;94.77;101368.69;5011636;28;20122;-85
2022/09/04 04:07:27;;;;;;;11.57;7.95;;;;;;;14.79;94.74;101370.34;5011886;28;20026;-85
2022/09/04 04:10:14;;;;;;;13.25;7.43;;;;;;;14.77;94.80;101373.31;5011244;28;20053;-85
2022/09/04 04:13:16;;;;;;;13.63;7.97;;;;;;;14.72;95.55;101384.09;5011991;28;20434;-85
2022/09/04 04:15:49;;;;;;;9.52;8.18;;;;;;;14.72;96.36;101391.41;5011566;28;20094;-85
2022/09/04 04:18:38;;;;;;;11.90;7.97;;;;;;;14.66;95.65;101377.09;5010645;28;20113;-85
2022/09/04 04:21:36;;;;;;;10.03;7.47;;;;;;;14.67;95.92;101392.97;5010725;28;20033;-85
2022/09/04 04:24:30;;;;;;;10.50;7.40;;;;;;;14.65;95.84;101397.84;5012507;28;20679;-85
2022/09/04 04:27:03;;;;;;;9.98;8.23;;;;;;;14.70;97.18;101399.75;5011402;28;20497;-85
2022/09/04 04:29:57;;;;;;;11.75;9.10;;;;;;;14.64;96.84;101390.03;5011582;28;20029;-85
2022/09/04 04:32:53;;;;;;;11.48;8.25;;;;;;;14.69;96.73;101395.44;5011821;28;20034;-85
2022/09/04 04:35:34;;;;;;;10.82;8.20;;;;;;;14.74;97.21;101410.81;5011218;28;20702;-85
2022/09/04 04:38:11;;;;;;;11.15;8.10;;;;;;;14.75;97.11;101407.03;5010912;28;20030;-85
2022/09/04 04:40:58;;;;;;;10.38;8.02;;;;;;;14.70;97.08;101399.75;5010889;28;20363;-85
2022/09/04 04:43:47;;;;;;;13.07;8.40;;;;;;;14.69;98.23;101412.44;5011286;28;20104;-85
2022/09/04 04:46:33;;;;;;;13.25;8.40;;;;;;;14.70;97.91;101410.53;5010822;28;20038;-85
2022/09/04 04:49:26;;;;;;;11.20;8.27;;;;;;;14.66;97.71;101410.25;5011039;28;20057;-85
2022/09/04 04:52:07;;;;;;;15.20;8.27;;;;;;;14.60;98.28;101410.53;5010398;28;20277;-85
2022/09/04 04:55:01;;;;;;;11.82;8.32;;;;;;;14.59;98.77;101415.13;5011141;28;20250;-85
2022/09/04 04:57:26;;;;;;;12.38;8.05;;;;;;;14.62;98.46;101413.75;5010883;28;20076;-85
2022/09/04 05:00:05;;;;;;;10.97;7.60;;;;;;;14.63;98.52;101418.06;5010307;28;20033;-85
2022/09/04 05:03:00;;;;;;;13.23;8.30;;;;;;;14.61;98.67;101417.53;5010822;28;20092;-85
2022/09/04 05:05:48;;;;;;;12.30;8.55;;;;;;;14.61;98.88;101429.13;5010239;28;20124;-85
2022/09/04 05:08:32;;;;;;;11.73;8.10;;;;;;;14.69;99.51;101423.22;5010742;28;20026;-85
2022/09/04 05:11:29;;;;;;;12.18;8.43;;;;;;;14.59;98.13;101425.91;5010101;28;20109;-85
2022/09/04 05:14:25;;;;;;;12.65;8.45;;;;;;;14.69;98.54;101439.41;5010257;28;20030;-85
2022/09/04 05:17:03;;;;;;;13.52;8.85;;;;;;;14.74;99.54;101438.59;5010619;28;20105;-85
2022/09/04 05:19:31;;;;;;;15.80;9.85;;;;;;;14.78;100.00;101444.28;5010454;28;20500;-85
2022/09/04 05:22:31;;;;;;;11.83;8.83;;;;;;;14.82;99.00;101448.03;5010070;28;20048;-85
2022/09/04 05:25:12;;;;;;;14.23;9.47;;;;;;;14.89;99.63;101451.25;4990472;28;20302;-85
2022/09/04 05:27:51;;;;;;;16.75;9.88;;;;;;;14.86;99.72;101451.78;5009260;28;20441;-85
2022/09/04 05:30:22;;;;;;;15.63;9.38;;;;;;;14.95;100.00;101455.59;5008698;28;20112;-86
2022/09/04 05:33:10;;;;;;;14.82;8.55;;;;;;;14.93;99.12;101463.13;5010591;28;20057;-85
2022/09/04 05:35:44;;;;;;;13.25;9.65;;;;;;;15.01;100.00;101463.66;5010322;28;20022;-86
2022/09/04 05:38:20;;;;;;;14.23;8.85;;;;;;;15.09;100.00;101473.91;5010204;28;20057;-86
2022/09/04 05:41:02;;;;;;;15.70;9.55;;;;;;;15.17;100.00;101473.34;5009929;28;20119;-86
2022/09/04 05:43:57;;;;;;;14.15;9.32;;;;;;;15.24;99.98;101489.28;5010376;28;20044;-86
2022/09/04 05:46:40;;;;;;;12.32;8.77;;;;;;;15.29;99.24;101476.56;5010360;28;20034;-86
2022/09/04 05:49:29;;;;;;;14.47;8.33;;;;;;;15.34;99.23;101493.84;5008740;28;20069;-86
2022/09/04 05:52:07;;;;;;;14.07;9.63;;;;;;;15.40;100.00;101492.72;5009867;28;20291;-85
2022/09/04 05:55:05;;;;;;;14.57;9.60;;;;;;;15.46;100.00;101494.34;5008768;28;20482;-85
2022/09/04 05:58:04;;;;;;;13.38;9.60;;;;;;;15.58;99.74;101496.75;5010323;28;20575;-86
2022/09/04 06:01:01;;;;;;;15.52;10.18;;;;;;;15.65;100.00;101504.56;5009353;28;20033;-86
2022/09/04 06:03:48;;;;;;;13.70;9.15;;;;;;;15.75;100.00;101504.50;5000599;28;20038;-86
2022/09/04 06:06:39;;;;;;;14.57;9.30;;;;;;;15.81;98.53;101508.81;5010244;28;20025;-86
2022/09/04 06:09:21;;;;;;;16.27;9.90;;;;;;;15.92;99.47;101506.91;5010214;28;20026;-86
2022/09/04 06:12:13;;;;;;;14.90;10.43;;;;;;;16.07;99.41;101510.63;5009546;28;20030;-86
2022/09/04 06:15:06;;;;;;;13.05;9.60;;;;;;;16.08;98.30;101501.41;5010221;28;20022;-86
2022/09/04 06:18:06;;;;;;;12.93;9.27;;;;;;;16.25;98.67;101517.28;5013196;28;20118;-86
2022/09/04 06:20:44;;;;;;;15.50;9.23;;;;;;;16.31;97.46;101516.16;5013847;28;20281;-86
2022/09/04 06:23:24;;;;;;;15.80;9.10;;;;;;;16.32;97.46;101512.34;5013861;28;20049;-86
2022/09/04 06:26:02;;;;;;;11.93;8.85;;;;;;;16.46;96.88;101518.75;5013936;28;20105;-86
2022/09/04 06:28:50;;;;;;;14.32;9.88;;;;;;;16.54;98.82;101517.34;5014099;28;20030;-86
2022/09/04 06:31:18;;;;;;;14.02;8.98;;;;;;;16.59;98.49;101525.44;5010355;28;20045;-86
2022/09/04 06:33:52;;;;;;;13.68;9.48;;;;;;;16.67;98.52;101524.03;5013462;28;20021;-86
2022/09/04 06:36:45;;;;;;;14.65;9.60;;;;;;;16.75;97.39;101519.91;5013842;28;20037;-86
2022/09/04 06:39:17;;;;;;;14.70;8.88;;;;;;;16.76;95.73;101522.34;5013376;28;20041;-86
2022/09/04 06:41:48;;;;;;;11.07;8.88;;;;;;;16.89;96.75;101537.09;5013448;28;20366;-87
2022/09/04 06:44:47;;;;;;;11.77;9.23;;;;;;;16.96;97.30;101526.00;5013497;28;20029;-86
2022/09/04 06:47:42;;;;;;;11.63;8.70;;;;;;;17.05;97.31;101524.28;5013645;28;20269;-86
2022/09/04 06:50:39;;;;;;;12.50;8.98;;;;;;;17.20;95.99;101534.19;5012846;28;20145;-86
2022/09/04 06:53:21;;;;;;;12.40;8.70;;;;;;;17.27;95.33;101533.84;5000782;28;20033;-86
2022/09/04 06:56:07;;;;;;;11.35;8.82;;;;;;;17.44;96.73;101532.59;5013715;28;20041;-86
2022/09/04 06:59:03;;;;;;;12.52;8.50;;;;;;;17.53;95.21;101530.84;5013236;28;20054;-86
2022/09/04 07:01:51;;;;;;;12.63;8.52;;;;;;;17.74;95.71;101542.28;5012861;28;20030;-86
2022/09/04 07:04:24;;;;;;;10.98;8.27;;;;;;;17.82;94.11;101541.63;5012858;28;20040;-86
2022/09/04 07:07:17;;;;;;;13.57;9.10;;;;;;;17.92;94.01;101546.13;5013189;28;20037;-86
2022/09/04 07:10:01;;;;;;;11.95;9.27;;;;;;;18.01;93.17;101539.00;5012695;28;20129;-86
2022/09/04 07:13:04;;;;;;;12.57;8.60;;;;;;;18.13;92.61;101541.28;5013374;28;20472;-86
2022/09/04 07:15:42;;;;;;;11.90;8.83;;;;;;;18.27;92.23;101548.69;5013001;28;20311;-86
2022/09/04 07:18:46;;;;;;;12.57;8.70;;;;;;;18.37;91.43;101556.69;5012743;28;20520;-86
2022/09/04 07:21:29;;;;;;;11.63;8.45;;;;;;;18.46;91.05;101554.94;5012238;28;20054;-86
2022/09/04 07:24:48;;;;;;;9.55;8.25;;;;;;;18.53;90.50;101554.56;5012309;28;20517;-86
2022/09/04 07:27:35;;;;;;;13.27;9.00;;;;;;;18.68;89.77;101560.84;5012380;28;20078;-86
2022/09/04 07:30:07;;;;;;;12.93;9.10;;;;;;;18.78;89.70;101566.13;5012200;28;20026;-87
2022/09/04 07:32:43;;;;;;;14.30;9.48;;;;;;;18.86;89.76;101570.88;5011336;28;20048;-86
2022/09/04 07:35:19;;;;;;;11.13;8.27;;;;;;;18.87;89.12;101561.63;5012253;28;20079;-86
2022/09/04 07:38:20;;;;;;;13.38;8.85;;;;;;;19.06;88.49;101574.41;5012646;28;20026;-86
2022/09/04 07:41:00;;;;;;;16.13;9.50;;;;;;;19.22;87.83;101585.81;5012054;28;20046;-86
2022/09/04 07:43:41;;;;;;;14.70;8.83;;;;;;;19.40;87.48;101586.06;5012386;28;20307;-87
2022/09/04 07:46:49;;;;;;;14.50;9.05;;;;;;;19.65;85.98;101577.41;5012199;28;20490;-86
2022/09/04 07:49:39;;;;;;;15.65;10.00;;;;;;;19.98;85.04;101584.69;4990231;28;20034;-86
2022/09/04 07:52:30;;;;;;;12.13;8.95;;;;;;;20.10;83.75;101576.81;5011834;28;20109;-86
2022/09/04 07:55:35;;;;;;;13.40;9.00;;;;;;;20.27;83.21;101597.13;5012189;28;20026;-87
2022/09/04 07:58:38;;;;;;;12.48;7.95;;;;;;;20.55;81.49;101597.09;5011826;28;20374;-86
2022/09/04 08:01:17;;;;;;;15.50;9.68;;;;;;;20.81;79.98;101593.81;5011805;28;20441;-86
2022/09/04 08:04:16;;;;;;;12.45;9.52;;;;;;;21.07;79.37;101595.91;5011389;28;20041;-87
2022/09/04 08:06:55;;;;;;;14.75;9.60;;;;;;;21.27;77.62;101589.13;5012368;28;20053;-86
2022/09/04 08:09:38;;;;;;;14.57;10.10;;;;;;;21.40;77.50;101593.69;5011953;28;20322;-86
2022/09/04 08:12:25;;;;;;;13.50;9.87;;;;;;;21.42;77.32;101596.91;5011657;28;20683;-87
2022/09/04 08:15:25;;;;;;;14.63;10.43;;;;;;;21.40;77.05;101606.50;5010462;28;20494;-87
2022/09/04 08:17:57;;;;;;;11.75;8.85;;;;;;;21.38;76.50;101614.19;5011402;28;20582;-86
2022/09/04 08:20:50;;;;;;;15.60;9.40;;;;;;;21.33;77.27;101605.03;5010143;28;20137;-87
2022/09/04 08:23:27;;;;;;;13.30;9.13;;;;;;;21.41;76.80;101605.38;5011545;28;20038;-87
2022/09/04 08:26:14;;;;;;;9.40;7.70;;;;;;;21.52;76.82;101614.91;5011748;28;20064;-87
2022/09/04 08:29:03;;;;;;;13.10;9.25;;;;;;;21.62;76.70;101609.22;5011820;28;20036;-87
2022/09/04 08:31:34;;;;;;;16.75;9.27;;;;;;;21.64;75.78;101608.88;5011006;28;20022;-86
2022/09/04 08:34:38;;;;;;;11.43;9.18;;;;;;;21.72;76.10;101619.03;5011032;28;20026;-87
2022/09/04 08:37:23;;;;;;;10.83;8.30;;;;;;;21.81;74.65;101618.28;5011450;28;20022;-86
2022/09/04 08:40:16;;;;;;;12.53;9.47;;;;;;;21.86;74.69;101621.66;5011023;28;20283;-86
2022/09/04 08:43:11;;;;;;;10.73;8.43;;;;;;;21.93;74.16;101626.66;5011658;28;20085;-86
2022/09/04 08:46:18;;;;;;;15.90;8.75;;;;;;;22.03;73.60;101614.66;5011144;28;20048;-86
2022/09/04 08:49:09;;;;;;;13.35;7.82;;;;;;;22.26;73.29;101625.47;5011353;28;20413;-87
2022/09/04 08:52:08;;;;;;;10.52;7.60;;;;;;;22.40;72.45;101628.84;5010973;28;20077;-87
2022/09/04 08:55:11;;;;;;;10.02;7.63;;;;;;;22.53;71.49;101633.38;5011539;28;20026;-86
2022/09/04 08:58:04;;;;;;;10.05;7.80;;;;;;;22.56;70.22;101631.94;5011385;28;20124;-87
2022/09/04 09:01:01;;;;;;;9.38;7.55;;;;;;;22.59;69.67;101633.22;5009278;28;20469;-87
2022/09/04 09:03:57;;;;;;;7.78;6.28;;;;;;;22.63;70.23;101637.72;5011151;28;20099;-86
2022/09/04 09:06:28;;;;;;;8.60;6.23;;;;;;;22.79;68.91;101643.53;5011004;28;20049;-87
2022/09/04 09:09:41;;;;;;;6.57;5.90;;;;;;;22.90;69.98;101641.28;5010854;28;20425;-86
2022/09/04 09:12:28;;;;;;;6.72;6.03;;;;;;;23.09;68.92;101640.91;5010505;28;20033;-86
2022/09/04 09:15:24;;;;;;;7.97;5.25;;;;;;;23.22;68.07;101638.34;5025861;28;20116;-86
2022/09/04 09:18:01;;;;;;;7.78;5.95;;;;;;;23.27;67.06;101643.66;5010629;28;20567;-86
2022/09/04 09:20:34;;;;;;;9.02;6.00;;;;;;;23.29;66.50;101633.19;5010849;28;20048;-87
2022/09/04 09:23:15;;;;;;;9.20;5.95;;;;;;;23.43;66.63;101643.94;5010481;28;20033;-87
2022/09/04 09:26:18;;;;;;;7.57;5.82;;;;;;;23.46;65.84;101635.09;5011126;28;20044;-87
2022/09/04 09:29:15;;;;;;;6.88;5.03;;;;;;;23.58;66.17;101615.25;5010819;28;20072;-87
2022/09/04 09:32:21;;;;;;;6.80;4.60;;;;;;;23.82;64.69;101633.81;5010084;28;20037;-87
2022/09/04 09:35:10;;;;;;;5.50;3.77;;;;;;;24.02;64.08;101629.56;5010764;28;20040;-86
2022/09/04 09:37:45;;;;;;;7.70;4.00;;;;;;;24.15;62.75;101632.38;5010596;28;20620;-86
2022/09/04 09:40:46;;;;;;;8.10;4.53;;;;;;;24.21;62.34;101631.06;5010063;28;20029;-86
2022/09/04 09:43:40;;;;;;;7.38;4.40;;;;;;;24.34;61.47;101629.22;5010247;28;20033;-86
2022/09/04 09:46:37;;;;;;;6.47;4.22;;;;;;;24.39;61.59;101626.25;5010168;28;20042;-87
2022/09/04 09:49:43;;;;;;;5.38;3.78;;;;;;;24.52;60.54;101627.13;5008703;28;20034;-87
2022/09/04 09:52:27;;;;;;;3.25;2.95;;;;;;;24.60;60.54;101639.16;5009925;28;20049;-87
2022/09/04 09:55:22;;;;;;;6.07;3.72;;;;;;;24.70;59.04;101632.47;5010011;28;20132;-87
2022/09/04 09:58:18;;;;;;;5.35;3.53;;;;;;;24.87;58.32;101635.09;5010273;28;20116;-87
2022/09/04 10:01:18;;;;;;;4.80;4.00;;;;;;;24.86;58.38;101632.69;5010151;28;20038;-87
2022/09/04 10:06:58;;;;;;;4.60;3.43;;;;;;;25.03;57.56;101637.19;5961094;23;20312;-87
2022/09/04 10:09:46;;;;;;;4.32;3.35;;;;;;;25.29;58.64;101636.13;5030131;28;20084;-87
2022/09/04 10:12:33;;;;;;;6.38;4.03;;;;;;;25.58;56.80;101637.94;5029979;28;20045;-86
2022/09/04 10:15:32;;;;;;;8.20;4.57;;;;;;;25.96;56.46;101633.22;5029789;28;20033;-87
2022/09/04 10:18:34;;;;;;;6.72;3.90;;;;;;;26.24;56.15;101646.28;5029949;28;20428;-87
2022/09/04 10:21:19;;;;;;;5.32;3.00;;;;;;;26.44;54.18;101626.09;5029657;28;20033;-87
2022/09/04 10:24:15;;;;;;;3.25;2.70;;;;;;;26.56;52.49;101639.00;5029985;28;20499;-86
2022/09/04 10:27:06;;;;;;;4.93;2.53;;;;;;;26.62;52.95;101636.81;5030070;28;20040;-86
2022/09/04 10:29:43;;;;;;;2.97;2.67;;;;;;;26.89;51.15;101640.75;5030168;28;20029;-86
2022/09/04 10:32:15;;;;;;;3.40;2.30;;;;;;;27.02;50.49;101643.44;5029435;28;20052;-87
2022/09/04 10:35:02;;;;;;;3.43;2.33;;;;;;;26.98;49.27;101637.84;5030262;28;20327;-86
2022/09/04 10:37:52;;;;;;;3.50;1.70;;;;;;;27.26;49.25;101641.72;5029958;28;20033;-86
2022/09/04 10:40:47;;;;;;;1.80;1.60;;;;;;;27.42;48.84;101634.25;5029477;28;20029;-86
2022/09/04 10:43:18;;;;;;;3.88;2.42;;;;;;;27.61;46.79;101636.31;5029912;28;20370;-87
2022/09/04 10:45:50;;;;;;;2.20;2.00;;;;;;;27.70;45.37;101635.34;5030073;28;20090;-86
2022/09/04 10:48:30;;;;;;;2.45;1.75;;;;;;;27.85;44.63;101652.97;5029639;28;20029;-86
2022/09/04 10:51:33;;;;;;;5.57;2.05;;;;;;;27.84;46.34;101643.94;5029155;28;20033;-86
2022/09/04 10:54:20;;;;;;;2.80;2.05;;;;;;;27.94;44.57;101637.09;5029381;28;20029;-86
2022/09/04 10:57:07;;;;;;;2.58;2.10;;;;;;;28.30;44.23;101643.44;5029562;28;20469;-87
2022/09/04 10:59:51;;;;;;;1.60;1.50;;;;;;;28.30;41.49;101631.63;5030079;28;20036;-86
2022/09/04 11:02:48;;;;;;;2.50;2.00;;;;;;;28.24;43.01;101640.16;5029791;28;20744;-86
2022/09/04 11:05:38;;;;;;;2.78;2.00;;;;;;;28.05;43.24;101631.81;5033434;28;20028;-86
2022/09/04 11:08:27;;;;;;;1.90;1.70;;;;;;;28.32;43.82;101634.78;5032855;28;20041;-87
2022/09/04 11:11:21;;;;;;;3.85;2.45;;;;;;;28.29;41.96;101630.81;5032771;28;20034;-86
2022/09/04 11:14:17;;;;;;;6.25;1.98;;;;;;;28.35;43.52;101637.63;5033020;28;20080;-86
2022/09/04 11:17:01;;;;;;;2.35;2.00;;;;;;;28.18;42.09;101641.59;5032887;28;20503;-87
2022/09/04 11:20:11;;;;;;;2.53;2.17;;;;;;;28.25;42.88;101641.75;5032787;28;20500;-87
2022/09/04 11:22:37;;;;;;;2.55;2.17;;;;;;;28.20;41.15;101632.97;4991320;28;20030;-87
2022/09/04 11:25:41;;;;;;;6.32;2.33;;;;;;;28.16;42.38;101638.38;4990307;28;20038;-87
2022/09/04 11:28:38;;;;;;;4.40;2.00;;;;;;;28.52;41.85;101630.88;5021265;28;20042;-87
2022/09/04 11:31:45;;;;;;;2.40;2.20;;;;;;;28.88;42.01;101625.31;5031970;28;20310;-87
2022/09/04 11:34:20;;;;;;;4.70;1.98;;;;;;;29.21;39.34;101631.44;5032445;28;20121;-87
2022/09/04 11:37:30;;;;;;;4.47;2.47;;;;;;;29.41;39.39;101626.66;5032711;28;20080;-87
2022/09/04 11:40:10;;;;;;;3.00;2.47;;;;;;;29.55;38.31;101631.63;4989785;28;20039;-87
2022/09/04 11:42:57;;;;;;;2.60;2.40;;;;;;;29.51;38.86;101636.28;4990805;28;20034;-87
2022/09/04 11:46:01;;;;;;;4.32;2.35;;;;;;;29.41;38.15;101621.16;5020111;28;20481;-88
2022/09/04 11:48:54;;;;;;;5.88;2.17;;;;;;;29.41;39.02;101640.47;5032881;28;20087;-87
2022/09/04 11:51:35;;;;;;;2.53;2.33;;;;;;;29.30;38.11;101638.31;5031883;28;20033;-87
2022/09/04 11:54:27;;;;;;;3.72;2.33;;;;;;;29.42;38.83;101640.09;5032148;28;20121;-87
2022/09/04 11:57:12;;;;;;;2.93;2.17;;;;;;;29.81;39.11;101641.09;5031956;28;20652;-87
2022/09/04 12:00:13;;;;;;;3.10;2.70;;;;;;;30.27;37.41;101632.69;5032223;28;20283;-88
2022/09/04 12:03:02;;;;;;;3.65;2.67;;;;;;;30.19;35.86;101625.47;5030760;28;20180;-88
2022/09/04 12:05:57;;;;;;;4.10;2.83;;;;;;;30.30;35.66;101631.97;5032124;28;20030;-88
2022/09/04 12:08:58;;;;;;;5.93;2.72;;;;;;;30.39;36.04;101636.38;5032381;28;20030;-88
2022/09/04 12:11:33;;;;;;;4.25;2.50;;;;;;;30.20;34.44;101635.34;5031629;28;20030;-88
2022/09/04 12:14:14;;;;;;;5.38;2.63;;;;;;;29.79;35.03;101638.72;5031569;28;20044;-87
2022/09/04 12:17:09;;;;;;;3.92;2.80;;;;;;;29.63;35.89;101632.53;5031654;28;20025;-88
2022/09/04 12:19:59;;;;;;;4.03;2.55;;;;;;;29.69;36.02;101636.56;5031922;28;20044;-87
2022/09/04 12:22:34;;;;;;;4.10;2.67;;;;;;;29.73;35.42;101645.69;5031614;28;20078;-88
2022/09/04 12:25:22;;;;;;;4.37;2.43;;;;;;;30.01;36.13;101645.38;5031443;28;20044;-87
2022/09/04 12:28:15;;;;;;;2.60;2.40;;;;;;;30.19;35.66;101648.41;5031361;28;20351;-88
2022/09/04 12:31:12;;;;;;;3.30;2.40;;;;;;;30.36;35.24;101652.56;5030059;28;20485;-88
2022/09/04 12:33:55;;;;;;;4.15;2.60;;;;;;;30.54;34.15;101649.22;5031222;28;20374;-87
2022/09/04 12:37:05;;;;;;;3.00;2.60;;;;;;;30.65;34.42;101641.06;5031787;28;20396;-87
2022/09/04 12:39:49;;;;;;;4.28;2.35;;;;;;;30.73;34.94;101642.75;5031140;28;20031;-88
2022/09/04 12:42:36;;;;;;;2.97;2.67;;;;;;;30.69;34.32;101647.44;5031827;28;20043;-88
2022/09/04 12:45:14;;;;;;;4.25;2.75;;;;;;;30.47;34.37;101647.16;5031029;28;20455;-87
2022/09/04 12:47:58;;;;;;;3.63;2.35;;;;;;;30.08;34.12;101649.41;5031636;28;20033;-88
2022/09/04 12:50:35;;;;;;;2.47;1.98;;;;;;;29.98;33.73;101654.41;5030823;28;20116;-88
2022/09/04 12:53:24;;;;;;;2.90;2.10;;;;;;;30.03;34.26;101645.78;5029657;28;20152;-87
2022/09/04 12:56:21;;;;;;;3.60;2.20;;;;;;;30.47;34.58;101638.09;5030811;28;20284;-87
2022/09/04 12:59:05;;;;;;;5.10;1.95;;;;;;;30.42;33.51;101653.00;5030893;28;20044;-87
2022/09/04 13:02:08;;;;;;;3.75;2.17;;;;;;;30.29;34.26;101649.72;5030634;28;20032;-87